createdAt,value
2023-02-19T00:01:43.833Z,99404.09
2023-02-19T00:04:15.131Z,99394.91
2023-02-19T00:06:44.111Z,99383.16
2023-02-19T00:09:12.181Z,99382.66
2023-02-19T00:11:40.136Z,99380.22
2023-02-19T00:14:08.726Z,99387.47
2023-02-19T00:16:38.745Z,99389.41
2023-02-19T00:19:08.823Z,99394.28
2023-02-19T00:21:37.981Z,99387.19
2023-02-19T00:24:09.214Z,99394.44
2023-02-19T00:26:39.574Z,99401.69
2023-02-19T00:29:07.318Z,99397.19
2023-02-19T00:31:36.916Z,99406.69
2023-02-19T00:34:07.192Z,99399.28
2023-02-19T00:36:36.128Z,99401.19
2023-02-19T00:39:05.757Z,99390.56
2023-02-19T00:41:34.013Z,99392.84
2023-02-19T00:44:03.102Z,99389.13
2023-02-19T00:46:32.205Z,99375.28
2023-02-19T00:49:00.669Z,99376.38
2023-02-19T00:51:30.818Z,99381.88
2023-02-19T00:53:59.386Z,99369.59
2023-02-19T00:56:28.846Z,99373.31
2023-02-19T00:59:00.068Z,99374.59
2023-02-19T01:01:27.922Z,99364.13
2023-02-19T01:03:55.848Z,99360.41
2023-02-19T01:06:23.612Z,99363.97
2023-02-19T01:08:51.963Z,99358.97
2023-02-19T01:11:20.377Z,99351.84
2023-02-19T01:13:49.612Z,99342.72
2023-02-19T01:16:19.302Z,99352.38
2023-02-19T01:18:47.716Z,99358.81
2023-02-19T01:21:18.171Z,99364.47
2023-02-19T01:23:47.261Z,99363.50
2023-02-19T01:26:16.813Z,99364.13
2023-02-19T01:28:44.848Z,99357.53
2023-02-19T01:31:16.332Z,99364.47
2023-02-19T01:33:46.944Z,99358.97
2023-02-19T01:36:15.698Z,99347.84
2023-02-19T01:38:43.496Z,99358.97
2023-02-19T01:41:13.829Z,99358.00
2023-02-19T01:44:00.337Z,99355.75
2023-02-19T01:46:30.678Z,99349.47
2023-02-19T01:49:02.061Z,99345.28
2023-02-19T01:51:33.410Z,99346.41
2023-02-19T01:54:05.854Z,99345.28
2023-02-19T01:56:35.583Z,99351.91
2023-02-19T01:59:04.293Z,99349.31
2023-02-19T02:01:33.785Z,99363.03
2023-02-19T02:04:01.925Z,99352.53
2023-02-19T02:06:32.454Z,99340.78
2023-02-19T02:09:19.056Z,99341.91
2023-02-19T02:11:49.752Z,99328.66
2023-02-19T02:14:19.416Z,99326.75
2023-02-19T02:16:57.125Z,99325.94
2023-02-19T02:20:03.690Z,99335.47
2023-02-19T02:22:38.226Z,99315.47
2023-02-19T02:25:37.616Z,99315.47
2023-02-19T02:28:23.385Z,99301.28
2023-02-19T02:30:55.793Z,99309.66
2023-02-19T02:33:32.982Z,99304.34
2023-02-19T02:36:07.022Z,99304.69
2023-02-19T02:38:39.795Z,99294.81
2023-02-19T02:41:08.402Z,99312.25
2023-02-19T02:43:36.778Z,99308.84
2023-02-19T02:46:12.273Z,99310.97
2023-02-19T02:48:44.687Z,99307.72
2023-02-19T02:51:19.053Z,99306.47
2023-02-19T02:54:15.319Z,99313.72
2023-02-19T02:56:46.094Z,99297.88
2023-02-19T02:59:19.678Z,99303.22
2023-02-19T03:02:11.376Z,99294.81
2023-02-19T03:05:06.359Z,99294.00
2023-02-19T03:07:36.989Z,99289.34
2023-02-19T03:10:08.344Z,99277.25
2023-02-19T03:12:57.591Z,99280.97
2023-02-19T03:15:46.056Z,99286.13
2023-02-19T03:18:35.225Z,99285.34
2023-02-19T03:21:07.510Z,99263.69
2023-02-19T03:23:56.832Z,99270.16
2023-02-19T03:26:27.242Z,99263.84
2023-02-19T03:29:15.053Z,99267.91
2023-02-19T03:31:47.713Z,99270.31
2023-02-19T03:34:20.631Z,99262.09
2023-02-19T03:36:57.577Z,99254.22
2023-02-19T03:39:25.683Z,99277.41
2023-02-19T03:42:02.531Z,99267.72
2023-02-19T03:44:42.493Z,99260.94
2023-02-19T03:47:17.084Z,99271.91
2023-02-19T03:49:49.578Z,99266.75
2023-02-19T03:52:26.190Z,99263.69
2023-02-19T03:54:59.510Z,99274.47
2023-02-19T03:57:38.480Z,99271.09
2023-02-19T04:00:12.438Z,99270.25
2023-02-19T04:02:44.777Z,99271.53
2023-02-19T04:05:17.834Z,99277.38
2023-02-19T04:07:50.287Z,99279.63
2023-02-19T04:10:22.814Z,99278.19
2023-02-19T04:12:59.002Z,99290.47
2023-02-19T04:15:30.462Z,99291.25
2023-02-19T04:18:01.602Z,99281.91
2023-02-19T04:20:35.218Z,99287.09
2023-02-19T04:23:03.435Z,99295.16
2023-02-19T04:25:33.244Z,99291.28
2023-02-19T04:28:01.348Z,99301.41
2023-02-19T04:30:29.308Z,99309.50
2023-02-19T04:32:57.168Z,99300.97
2023-02-19T04:35:24.917Z,99314.69
2023-02-19T04:37:54.053Z,99303.72
2023-02-19T04:40:21.782Z,99310.00
2023-02-19T04:42:51.825Z,99319.19
2023-02-19T04:45:19.533Z,99321.44
2023-02-19T04:47:47.315Z,99308.34
2023-02-19T04:50:15.363Z,99308.34
2023-02-19T04:52:43.200Z,99312.91
2023-02-19T04:55:12.472Z,99313.88
2023-02-19T04:57:40.196Z,99308.84
2023-02-19T05:00:09.646Z,99318.84
2023-02-19T05:02:37.406Z,99323.88
2023-02-19T05:05:05.597Z,99319.19
2023-02-19T05:07:34.068Z,99332.22
2023-02-19T05:10:02.378Z,99333.84
2023-02-19T05:12:32.506Z,99328.19
2023-02-19T05:15:00.465Z,99321.25
2023-02-19T05:17:28.214Z,99328.03
2023-02-19T05:19:55.930Z,99316.13
2023-02-19T05:22:23.654Z,99320.63
2023-02-19T05:24:51.375Z,99298.06
2023-02-19T05:27:19.098Z,99312.84
2023-02-19T05:29:48.113Z,99311.09
2023-02-19T05:32:15.971Z,99316.09
2023-02-19T05:34:43.756Z,99333.84
2023-02-19T05:37:11.497Z,99331.41
2023-02-19T05:39:39.193Z,99339.16
2023-02-19T05:42:06.973Z,99327.25
2023-02-19T05:44:34.749Z,99336.91
2023-02-19T05:47:03.853Z,99335.94
2023-02-19T05:49:31.574Z,99329.47
2023-02-19T05:51:59.297Z,99310.31
2023-02-19T05:54:29.815Z,99321.13
2023-02-19T05:56:57.809Z,99320.97
2023-02-19T05:59:27.061Z,99327.88
2023-02-19T06:01:55.953Z,99339.13
2023-02-19T06:04:25.108Z,99328.50
2023-02-19T06:06:52.902Z,99324.78
2023-02-19T06:09:20.635Z,99317.06
2023-02-19T06:11:48.341Z,99320.78
2023-02-19T06:14:16.286Z,99329.97
2023-02-19T06:16:44.031Z,99341.06
2023-02-19T06:19:11.839Z,99327.06
2023-02-19T06:21:41.453Z,99331.59
2023-02-19T06:24:10.630Z,99339.13
2023-02-19T06:26:39.418Z,99345.28
2023-02-19T06:29:07.084Z,99344.31
2023-02-19T06:31:34.914Z,99350.91
2023-02-19T06:34:05.199Z,99345.16
2023-02-19T06:36:33.300Z,99348.31
2023-02-19T06:39:03.196Z,99351.22
2023-02-19T06:41:31.034Z,99363.78
2023-02-19T06:43:58.823Z,99359.16
2023-02-19T06:46:26.885Z,99374.75
2023-02-19T06:48:54.652Z,99370.41
2023-02-19T06:51:27.184Z,99384.28
2023-02-19T06:53:55.222Z,99365.56
2023-02-19T06:56:27.442Z,99386.38
2023-02-19T06:58:56.530Z,99405.72
2023-02-19T07:01:24.918Z,99409.59
2023-02-19T07:03:53.476Z,99400.38
2023-02-19T07:06:21.999Z,99399.59
2023-02-19T07:08:49.988Z,99407.00
2023-02-19T07:11:18.621Z,99417.97
2023-02-19T07:13:48.114Z,99429.09
2023-02-19T07:16:20.590Z,99417.66
2023-02-19T07:18:48.354Z,99429.44
2023-02-19T07:21:17.008Z,99429.44
2023-02-19T07:23:45.844Z,99441.81
2023-02-19T07:26:15.203Z,99442.78
2023-02-19T07:28:43.188Z,99435.88
2023-02-19T07:31:13.333Z,99427.31
2023-02-19T07:33:43.713Z,99429.72
2023-02-19T07:36:13.291Z,99452.31
2023-02-19T07:38:41.096Z,99453.75
2023-02-19T07:41:09.021Z,99457.63
2023-02-19T07:43:38.762Z,99433.63
2023-02-19T07:46:08.321Z,99457.47
2023-02-19T07:48:38.382Z,99455.72
2023-02-19T07:51:07.771Z,99464.91
2023-02-19T07:53:36.476Z,99466.84
2023-02-19T07:56:07.350Z,99462.59
2023-02-19T07:58:35.999Z,99477.47
2023-02-19T08:01:12.042Z,99474.91
2023-02-19T08:03:40.480Z,99475.56
2023-02-19T08:06:11.086Z,99493.78
2023-02-19T08:08:39.418Z,99470.56
2023-02-19T08:11:25.428Z,99481.06
2023-02-19T08:13:54.024Z,99476.53
2023-02-19T08:16:36.799Z,99473.47
2023-02-19T08:19:10.107Z,99476.50
2023-02-19T08:21:39.240Z,99487.13
2023-02-19T08:24:07.452Z,99457.66
2023-02-19T08:26:35.618Z,99476.03
2023-02-19T08:29:03.810Z,99477.34
2023-02-19T08:31:31.617Z,99490.84
2023-02-19T08:33:59.431Z,99481.00
2023-02-19T08:36:28.831Z,99475.75
2023-02-19T08:38:56.742Z,99496.53
2023-02-19T08:41:24.505Z,99501.03
2023-02-19T08:43:52.282Z,99477.47
2023-02-19T08:46:20.287Z,99483.63
2023-02-19T08:48:48.199Z,99475.25
2023-02-19T08:51:16.021Z,99471.84
2023-02-19T08:53:45.261Z,99477.66
2023-02-19T08:56:15.530Z,99491.53
2023-02-19T08:58:43.581Z,99493.94
2023-02-19T09:01:13.037Z,99489.22
2023-02-19T09:03:41.237Z,99507.31
2023-02-19T09:06:09.624Z,99504.03
2023-02-19T09:08:37.627Z,99500.22
2023-02-19T09:11:07.095Z,99502.16
2023-02-19T09:13:35.071Z,99506.03
2023-02-19T09:16:04.354Z,99516.34
2023-02-19T09:18:32.456Z,99514.09
2023-02-19T09:21:02.145Z,99523.59
2023-02-19T09:23:29.876Z,99522.63
2023-02-19T09:26:00.972Z,99507.81
2023-02-19T09:28:30.241Z,99530.72
2023-02-19T09:30:58.006Z,99512.81
2023-02-19T09:33:25.769Z,99522.50
2023-02-19T09:35:53.528Z,99531.38
2023-02-19T09:38:21.397Z,99533.59
2023-02-19T09:40:49.698Z,99542.97
2023-02-19T09:43:21.284Z,99548.78
2023-02-19T09:45:55.638Z,99545.66
2023-02-19T09:48:23.232Z,99545.81
2023-02-19T09:50:51.023Z,99543.59
2023-02-19T09:53:26.175Z,99548.53
2023-02-19T09:55:54.190Z,99552.88
2023-02-19T09:58:29.912Z,99553.19
2023-02-19T10:01:02.023Z,99546.72
2023-02-19T10:03:35.746Z,99545.97
2023-02-19T10:06:11.154Z,99553.94
2023-02-19T10:08:41.258Z,99545.53
2023-02-19T10:11:12.999Z,99561.22
2023-02-19T10:13:45.219Z,99553.13
2023-02-19T10:16:19.021Z,99560.75
2023-02-19T10:18:47.719Z,99560.88
2023-02-19T10:21:19.590Z,99575.31
2023-02-19T10:23:50.163Z,99575.38
2023-02-19T10:26:18.374Z,99576.13
2023-02-19T10:28:46.623Z,99581.75
2023-02-19T10:31:20.940Z,99594.06
2023-02-19T10:33:49.978Z,99584.50
2023-02-19T10:36:27.516Z,99583.88
2023-02-19T10:38:57.668Z,99591.88
2023-02-19T10:41:27.427Z,99599.50
2023-02-19T10:43:57.931Z,99591.19
2023-02-19T10:46:29.721Z,99590.00
2023-02-19T10:49:00.374Z,99599.31
2023-02-19T10:51:33.924Z,99582.53
2023-02-19T10:54:06.952Z,99602.78
2023-02-19T10:56:35.161Z,99609.28
2023-02-19T10:59:21.872Z,99612.19
2023-02-19T11:01:58.742Z,99626.91
2023-02-19T11:04:28.013Z,99627.41
2023-02-19T11:06:57.374Z,99660.75
2023-02-19T11:09:29.278Z,99648.03
2023-02-19T11:11:59.367Z,99671.28
2023-02-19T11:14:28.291Z,99669.66
2023-02-19T11:16:59.526Z,99660.00
2023-02-19T11:19:36.511Z,99628.50
2023-02-19T11:22:20.934Z,99617.13
2023-02-19T11:24:50.726Z,99612.72
2023-02-19T11:27:20.877Z,99621.78
2023-02-19T11:29:48.927Z,99606.88
2023-02-19T11:32:27.728Z,99596.59
2023-02-19T11:35:18.535Z,99599.00
2023-02-19T11:37:57.981Z,99604.03
2023-02-19T11:40:37.311Z,99601.63
2023-02-19T11:43:17.271Z,99616.31
2023-02-19T11:45:52.778Z,99612.25
2023-02-19T11:48:34.005Z,99617.41
2023-02-19T11:51:25.405Z,99626.84
2023-02-19T11:54:04.939Z,99632.56
2023-02-19T11:56:37.049Z,99629.53
2023-02-19T11:59:06.466Z,99634.91
2023-02-19T12:01:57.937Z,99641.31
2023-02-19T12:05:10.473Z,99622.69
2023-02-19T12:08:10.287Z,99627.03
2023-02-19T12:10:53.291Z,99615.88
2023-02-19T12:13:29.015Z,99620.59
2023-02-19T12:16:18.717Z,99617.13
2023-02-19T12:19:05.322Z,99596.19
2023-02-19T12:22:01.206Z,99592.16
2023-02-19T12:25:04.401Z,99587.00
2023-02-19T12:27:45.139Z,99594.72
2023-02-19T12:30:39.153Z,99593.59
2023-02-19T12:33:31.048Z,99593.78
2023-02-19T12:36:11.457Z,99597.09
2023-02-19T12:38:44.681Z,99605.00
2023-02-19T12:44:22.402Z,99584.06
2023-02-19T12:46:54.406Z,99587.16
2023-02-19T12:49:28.890Z,99599.16
2023-02-19T12:51:59.488Z,99605.56
2023-02-19T12:54:31.248Z,99612.47
2023-02-19T12:57:04.080Z,99599.44
2023-02-19T12:59:38.030Z,99612.81
2023-02-19T13:02:14.847Z,99624.94
2023-02-19T13:04:48.546Z,99616.16
2023-02-19T13:07:21.483Z,99614.09
2023-02-19T13:09:52.939Z,99607.63
2023-02-19T13:12:25.491Z,99605.59
2023-02-19T13:14:58.960Z,99607.34
2023-02-19T13:17:33.333Z,99595.28
2023-02-19T13:20:03.938Z,99595.22
2023-02-19T13:22:57.197Z,99602.91
2023-02-19T13:25:32.759Z,99597.81
2023-02-19T13:28:12.760Z,99600.56
2023-02-19T13:31:07.155Z,99611.22
2023-02-19T13:33:44.234Z,99620.59
2023-02-19T13:36:15.429Z,99628.69
2023-02-19T13:38:45.818Z,99636.25
2023-02-19T13:41:29.071Z,99621.56
2023-02-19T13:44:03.302Z,99625.78
2023-02-19T13:46:41.302Z,99607.00
2023-02-19T13:49:45.569Z,99610.41
2023-02-19T13:52:38.113Z,99596.22
2023-02-19T13:55:44.134Z,99597.16
2023-02-19T13:58:37.759Z,99585.13
2023-02-19T14:01:07.138Z,99583.25
2023-02-19T14:03:51.016Z,99567.53
2023-02-19T14:06:18.966Z,99557.69
2023-02-19T14:08:53.165Z,99570.94
2023-02-19T14:11:59.669Z,99558.91
2023-02-19T14:14:29.413Z,99564.41
2023-02-19T14:17:07.482Z,99566.09
2023-02-19T14:19:56.756Z,99576.03
2023-02-19T14:23:02.470Z,99586.56
2023-02-19T14:25:53.166Z,99580.50
2023-02-19T14:28:30.056Z,99581.28
2023-02-19T14:31:00.981Z,99586.88
2023-02-19T14:33:31.525Z,99577.44
2023-02-19T14:36:05.753Z,99577.28
2023-02-19T14:38:38.072Z,99596.16
2023-02-19T14:41:07.401Z,99599.97
2023-02-19T14:43:36.608Z,99603.13
2023-02-19T14:46:10.778Z,99610.78
2023-02-19T14:48:43.780Z,99616.41
2023-02-19T14:51:16.169Z,99608.34
2023-02-19T14:53:46.482Z,99610.69
2023-02-19T14:56:21.699Z,99614.50
2023-02-19T14:59:07.056Z,99610.38
2023-02-19T15:01:34.950Z,99628.38
2023-02-19T15:04:02.772Z,99621.53
2023-02-19T15:06:33.422Z,99627.34
2023-02-19T15:09:05.008Z,99638.34
2023-02-19T15:11:34.395Z,99634.88
2023-02-19T15:14:04.965Z,99633.19
2023-02-19T15:16:35.664Z,99645.06
2023-02-19T15:19:07.862Z,99640.66
2023-02-19T15:21:40.968Z,99645.34
2023-02-19T15:24:09.040Z,99640.16
2023-02-19T15:26:39.044Z,99629.91
2023-02-19T15:29:12.117Z,99637.06
2023-02-19T15:31:46.488Z,99650.63
2023-02-19T15:34:18.382Z,99644.06
2023-02-19T15:36:49.055Z,99652.69
2023-02-19T15:39:24.703Z,99641.13
2023-02-19T15:41:58.493Z,99639.84
2023-02-19T15:44:42.937Z,99645.50
2023-02-19T15:47:20.230Z,99641.47
2023-02-19T15:49:53.965Z,99640.31
2023-02-19T15:52:29.664Z,99642.78
2023-02-19T15:55:02.892Z,99644.22
2023-02-19T15:57:36.305Z,99651.34
2023-02-19T16:00:12.834Z,99636.91
2023-02-19T16:02:45.626Z,99641.66
2023-02-19T16:05:18.150Z,99653.72
2023-02-19T16:07:47.387Z,99663.13
2023-02-19T16:10:23.173Z,99670.41
2023-02-19T16:12:59.476Z,99660.97
2023-02-19T16:15:31.598Z,99661.72
2023-02-19T16:18:00.470Z,99659.94
2023-02-19T16:20:31.941Z,99666.88
2023-02-19T16:23:10.890Z,99657.81
2023-02-19T16:25:45.048Z,99670.16
2023-02-19T16:28:24.015Z,99663.22
2023-02-19T16:31:01.891Z,99664.94
2023-02-19T16:33:37.701Z,99665.75
2023-02-19T16:36:20.905Z,99660.75
2023-02-19T16:39:23.956Z,99664.19
2023-02-19T16:42:14.401Z,99672.25
2023-02-19T16:44:46.372Z,99676.94
2023-02-19T16:47:41.543Z,99654.19
2023-02-19T16:50:15.407Z,99670.16
2023-02-19T16:52:58.454Z,99676.63
2023-02-19T16:55:34.758Z,99664.03
2023-02-19T16:58:02.531Z,99666.78
2023-02-19T17:00:33.973Z,99669.69
2023-02-19T17:03:09.402Z,99662.09
2023-02-19T17:05:39.711Z,99676.31
2023-02-19T17:08:31.180Z,99676.31
2023-02-19T17:11:00.918Z,99679.69
2023-02-19T17:13:31.230Z,99677.41
2023-02-19T17:16:13.194Z,99693.91
2023-02-19T17:18:43.960Z,99692.44
2023-02-19T17:21:16.412Z,99693.25
2023-02-19T17:23:46.500Z,99692.13
2023-02-19T17:26:17.442Z,99697.78
2023-02-19T17:28:45.246Z,99696.34
2023-02-19T17:31:16.682Z,99695.19
2023-02-19T17:33:45.124Z,99703.13
2023-02-19T17:36:22.920Z,99711.50
2023-02-19T17:38:57.407Z,99725.25
2023-02-19T17:41:30.633Z,99727.50
2023-02-19T17:43:58.409Z,99733.16
2023-02-19T17:46:30.708Z,99726.53
2023-02-19T17:48:58.560Z,99739.44
2023-02-19T17:51:27.928Z,99737.66
2023-02-19T17:53:55.607Z,99738.47
2023-02-19T17:56:26.348Z,99743.00
2023-02-19T17:58:56.707Z,99753.50
2023-02-19T18:01:26.278Z,99760.91
2023-02-19T18:03:54.151Z,99762.84
2023-02-19T18:06:24.326Z,99766.94
2023-02-19T18:08:54.254Z,99766.88
2023-02-19T18:11:24.521Z,99780.94
2023-02-19T18:13:52.988Z,99776.56
2023-02-19T18:16:24.935Z,99780.28
2023-02-19T18:18:52.751Z,99779.34
2023-02-19T18:21:22.677Z,99782.25
2023-02-19T18:23:50.416Z,99780.31
2023-02-19T18:26:20.374Z,99790.59
2023-02-19T18:28:48.096Z,99787.72
2023-02-19T18:31:21.772Z,99780.97
2023-02-19T18:33:50.960Z,99786.28
2023-02-19T18:36:18.731Z,99789.66
2023-02-19T18:38:48.020Z,99783.03
2023-02-19T18:41:22.729Z,99796.16
2023-02-19T18:43:50.464Z,99793.09
2023-02-19T18:46:22.158Z,99794.84
2023-02-19T18:48:54.052Z,99801.28
2023-02-19T18:51:23.376Z,99799.69
2023-02-19T18:53:51.472Z,99805.81
2023-02-19T18:56:19.338Z,99806.63
2023-02-19T18:58:49.231Z,99803.41
2023-02-19T19:01:18.045Z,99815.66
2023-02-19T19:03:48.998Z,99821.31
2023-02-19T19:06:23.530Z,99826.19
2023-02-19T19:08:54.112Z,99814.28
2023-02-19T19:11:23.842Z,99830.19
2023-02-19T19:13:54.659Z,99832.41
2023-02-19T19:16:34.441Z,99841.00
2023-02-19T19:19:03.816Z,99846.84
2023-02-19T19:21:35.598Z,99846.38
2023-02-19T19:24:10.092Z,99848.75
2023-02-19T19:26:37.683Z,99847.78
2023-02-19T19:29:05.663Z,99844.72
2023-02-19T19:31:37.068Z,99843.00
2023-02-19T19:34:07.524Z,99849.88
2023-02-19T19:36:38.183Z,99849.72
2023-02-19T19:39:11.274Z,99852.31
2023-02-19T19:41:43.122Z,99852.94
2023-02-19T19:44:17.031Z,99853.75
2023-02-19T19:46:47.615Z,99851.97
2023-02-19T19:49:18.784Z,99858.84
2023-02-19T19:51:58.703Z,99868.22
2023-02-19T19:54:28.557Z,99876.78
2023-02-19T19:56:59.314Z,99873.44
2023-02-19T19:59:27.323Z,99878.06
2023-02-19T20:01:57.809Z,99870.34
2023-02-19T20:04:26.905Z,99873.94
2023-02-19T20:06:56.070Z,99873.56
2023-02-19T20:09:25.587Z,99866.72
2023-02-19T20:11:54.513Z,99875.47
2023-02-19T20:14:23.621Z,99865.94
2023-02-19T20:16:51.372Z,99858.47
2023-02-19T20:19:20.898Z,99866.84
2023-02-19T20:21:50.368Z,99860.59
2023-02-19T20:24:24.034Z,99859.69
2023-02-19T20:26:52.368Z,99867.53
2023-02-19T20:29:20.137Z,99870.06
2023-02-19T20:31:51.635Z,99874.66
2023-02-19T20:34:19.729Z,99869.34
2023-02-19T20:36:49.173Z,99863.53
2023-02-19T20:39:19.586Z,99873.00
2023-02-19T20:41:48.179Z,99868.59
2023-02-19T20:44:16.628Z,99868.00
2023-02-19T20:46:45.112Z,99856.53
2023-02-19T20:49:13.402Z,99858.19
2023-02-19T20:51:45.460Z,99861.50
2023-02-19T20:54:14.271Z,99869.25
2023-02-19T20:56:46.525Z,99864.03
2023-02-19T20:59:15.415Z,99861.16
2023-02-19T21:01:43.478Z,99870.53
2023-02-19T21:04:11.728Z,99870.59
2023-02-19T21:06:40.651Z,99869.03
2023-02-19T21:09:08.633Z,99869.94
2023-02-19T21:11:36.928Z,99867.38
2023-02-19T21:14:06.092Z,99867.00
2023-02-19T21:16:34.143Z,99866.66
2023-02-19T21:19:01.984Z,99867.81
2023-02-19T21:21:31.473Z,99872.00
2023-02-19T21:24:01.157Z,99872.84
2023-02-19T21:26:36.741Z,99881.84
2023-02-19T21:29:06.460Z,99863.63
2023-02-19T21:31:39.621Z,99881.38
2023-02-19T21:34:08.793Z,99868.31
2023-02-19T21:36:37.183Z,99866.72
2023-02-19T21:39:06.850Z,99870.47
2023-02-19T21:41:34.697Z,99866.72
2023-02-19T21:44:02.751Z,99853.59
2023-02-19T21:46:32.899Z,99860.78
2023-02-19T21:49:01.352Z,99867.72
2023-02-19T21:51:31.353Z,99847.75
2023-02-19T21:54:00.126Z,99849.03
2023-02-19T21:56:29.622Z,99856.31
2023-02-19T21:58:57.759Z,99847.94
2023-02-19T22:01:28.528Z,99864.00
2023-02-19T22:03:57.877Z,99860.44
2023-02-19T22:06:29.188Z,99855.19
2023-02-19T22:08:57.734Z,99856.56
2023-02-19T22:11:25.756Z,99855.78
2023-02-19T22:13:53.879Z,99865.75
2023-02-19T22:16:22.235Z,99870.28
2023-02-19T22:18:54.124Z,99875.50
2023-02-19T22:21:25.153Z,99879.13
2023-02-19T22:23:54.198Z,99879.53
2023-02-19T22:26:23.761Z,99886.34
2023-02-19T22:28:52.191Z,99886.59
2023-02-19T22:31:21.557Z,99888.69
2023-02-19T22:33:49.442Z,99894.81
2023-02-19T22:36:19.083Z,99896.44
2023-02-19T22:38:48.785Z,99900.16
2023-02-19T22:41:17.075Z,99888.22
2023-02-19T22:43:45.038Z,99892.19
2023-02-19T22:46:17.417Z,99890.94
2023-02-19T22:48:45.463Z,99897.13
2023-02-19T22:51:14.041Z,99895.66
2023-02-19T22:53:45.566Z,99897.94
2023-02-19T22:56:16.363Z,99893.72
2023-02-19T22:58:45.003Z,99891.06
2023-02-19T23:01:15.887Z,99899.81
2023-02-19T23:03:48.967Z,99896.31
2023-02-19T23:06:18.278Z,99897.53
2023-02-19T23:08:46.091Z,99909.22
2023-02-19T23:11:21.993Z,99903.59
2023-02-19T23:13:49.747Z,99912.34
2023-02-19T23:16:17.863Z,99911.97
2023-02-19T23:18:45.698Z,99907.47
2023-02-19T23:21:14.025Z,99910.84
2023-02-19T23:23:42.531Z,99902.72
2023-02-19T23:26:10.537Z,99900.72
2023-02-19T23:28:40.585Z,99907.81
2023-02-19T23:31:08.721Z,99913.28
2023-02-19T23:33:36.834Z,99921.59
2023-02-19T23:36:05.067Z,99919.06
2023-02-19T23:38:32.909Z,99915.66
2023-02-19T23:41:01.074Z,99916.97
2023-02-19T23:43:29.237Z,99909.25
2023-02-19T23:45:58.558Z,99911.88
2023-02-19T23:48:26.393Z,99919.00
2023-02-19T23:50:54.279Z,99915.56
2023-02-19T23:53:22.095Z,99915.66
2023-02-19T23:55:49.859Z,99908.63
2023-02-19T23:58:17.691Z,99913.66
